createdAt,value
2019-04-16T00:01:04.925Z,96238.94
2019-04-16T00:03:32.149Z,96241.59
2019-04-16T00:06:05.790Z,96239.95
2019-04-16T00:08:54.123Z,96235.75
2019-04-16T00:11:26.062Z,96236.67
2019-04-16T00:13:57.949Z,96235.75
2019-04-16T00:16:24.647Z,96237.73
2019-04-16T00:18:57.992Z,96237.83
2019-04-16T00:21:48.957Z,96240.39
2019-04-16T00:24:35.163Z,96229.12
2019-04-16T00:27:01.786Z,96229.12
2019-04-16T00:29:32.557Z,96226.55
2019-04-16T00:32:09.775Z,96228.52
2019-04-16T00:34:36.474Z,96222.98
2019-04-16T00:37:03.258Z,96221.45
2019-04-16T00:39:29.936Z,96218.88
2019-04-16T00:41:56.766Z,96224.33
2019-04-16T00:44:23.384Z,96215.31
2019-04-16T00:46:50.034Z,96222.57
2019-04-16T00:49:16.627Z,96219.92
2019-04-16T00:51:43.239Z,96215.72
2019-04-16T00:54:11.245Z,96214.28
2019-04-16T00:56:38.114Z,96213.66
2019-04-16T00:59:04.738Z,96209.36
2019-04-16T01:01:31.348Z,96204.13
2019-04-16T01:03:57.962Z,96208.33
2019-04-16T01:06:24.576Z,96206.37
2019-04-16T01:08:54.917Z,96208.31
2019-04-16T01:11:19.700Z,96207.50
2019-04-16T01:13:46.344Z,96213.30
2019-04-16T01:16:13.089Z,96220.47
2019-04-16T01:18:39.700Z,96218.73
2019-04-16T01:21:06.542Z,96218.66
2019-04-16T01:23:33.262Z,96224.56
2019-04-16T01:25:59.882Z,96228.55
2019-04-16T01:28:29.350Z,96221.51
2019-04-16T01:31:19.395Z,96221.48
2019-04-16T01:34:08.280Z,96220.86
2019-04-16T01:36:54.994Z,96221.57
2019-04-16T01:39:24.167Z,96226.38
2019-04-16T01:41:53.279Z,96226.47
2019-04-16T01:44:19.333Z,96221.97
2019-04-16T01:46:45.969Z,96225.22
2019-04-16T01:49:12.665Z,96220.30
2019-04-16T01:51:39.307Z,96217.72
2019-04-16T01:54:05.903Z,96218.34
2019-04-16T01:56:32.545Z,96227.73
2019-04-16T01:58:59.141Z,96221.16
2019-04-16T02:01:25.755Z,96221.36
2019-04-16T02:03:52.410Z,96218.07
2019-04-16T02:06:19.015Z,96226.13
2019-04-16T02:08:45.637Z,96223.53
2019-04-16T02:11:12.241Z,96218.09
2019-04-16T02:13:38.871Z,96227.90
2019-04-16T02:16:05.477Z,96226.06
2019-04-16T02:18:32.099Z,96229.63
2019-04-16T02:20:58.702Z,96226.06
2019-04-16T02:23:25.349Z,96228.67
2019-04-16T02:25:52.052Z,96225.39
2019-04-16T02:28:21.466Z,96218.13
2019-04-16T02:30:47.185Z,96218.83
2019-04-16T02:33:13.779Z,96217.38
2019-04-16T02:35:40.410Z,96226.27
2019-04-16T02:38:10.499Z,96225.64
2019-04-16T02:40:35.568Z,96227.05
2019-04-16T02:43:06.607Z,96225.91
2019-04-16T02:45:30.829Z,96223.76
2019-04-16T02:47:57.440Z,96226.61
2019-04-16T02:50:36.180Z,96230.78
2019-04-16T02:53:31.427Z,96225.16
2019-04-16T02:56:22.772Z,96229.84
2019-04-16T02:59:12.440Z,96221.24
2019-04-16T03:02:15.176Z,96226.53
2019-04-16T03:07:23.893Z,96228.95
2019-04-16T03:10:00.699Z,96232.80
2019-04-16T03:12:28.784Z,96225.72
2019-04-16T03:14:55.439Z,96229.68
2019-04-16T03:17:42.886Z,96224.62
2019-04-16T03:20:17.062Z,96230.13
2019-04-16T03:22:43.799Z,96229.43
2019-04-16T03:28:11.580Z,96226.97
2019-04-16T03:30:42.129Z,96232.15
2019-04-16T03:33:16.617Z,96228.10
2019-04-16T03:35:51.562Z,96231.39
2019-04-16T03:38:18.280Z,96234.05
2019-04-16T03:40:44.974Z,96230.06
2019-04-16T03:43:11.593Z,96228.61
2019-04-16T03:45:40.491Z,96228.67
2019-04-16T03:48:07.056Z,96227.91
2019-04-16T03:50:33.756Z,96231.17
2019-04-16T03:53:00.380Z,96233.89
2019-04-16T03:55:26.979Z,96229.47
2019-04-16T03:57:54.002Z,96229.97
2019-04-16T04:00:23.493Z,96232.62
2019-04-16T04:02:54.149Z,96225.36
2019-04-16T04:05:18.643Z,96231.67
2019-04-16T04:07:45.279Z,96233.50
2019-04-16T04:10:30.014Z,96238.12
2019-04-16T04:12:46.600Z,96232.62
2019-04-16T04:15:13.300Z,96237.42
2019-04-16T04:17:39.918Z,96237.30
2019-04-16T04:20:06.527Z,96236.98
2019-04-16T04:22:33.275Z,96226.33
2019-04-16T04:25:00.514Z,96229.17
2019-04-16T04:27:28.397Z,96229.04
2019-04-16T04:29:56.624Z,96233.72
2019-04-16T04:32:32.427Z,96228.91
2019-04-16T04:35:05.180Z,96233.02
2019-04-16T04:37:32.067Z,96233.34
2019-04-16T04:39:58.806Z,96235.99
2019-04-16T04:42:28.118Z,96240.29
2019-04-16T04:44:53.989Z,96244.45
2019-04-16T04:47:20.733Z,96240.47
2019-04-16T04:49:47.347Z,96248.25
2019-04-16T04:52:15.145Z,96249.01
2019-04-16T04:54:41.882Z,96252.27
2019-04-16T04:57:08.644Z,96251.38
2019-04-16T04:59:36.720Z,96254.92
2019-04-16T05:02:03.830Z,96254.45
2019-04-16T05:04:53.301Z,96254.33
2019-04-16T05:07:19.985Z,96260.94
2019-04-16T05:09:46.569Z,96260.42
2019-04-16T05:12:13.361Z,96262.59
2019-04-16T05:14:50.719Z,96261.95
2019-04-16T05:17:17.448Z,96259.75
2019-04-16T05:19:44.557Z,96263.02
2019-04-16T05:22:11.236Z,96250.08
2019-04-16T05:24:37.883Z,96253.48
2019-04-16T05:27:05.453Z,96250.71
2019-04-16T05:29:39.199Z,96250.05
2019-04-16T05:32:05.946Z,96253.02
2019-04-16T05:34:34.674Z,96257.91
2019-04-16T05:37:07.190Z,96266.86
2019-04-16T05:39:33.823Z,96265.18
2019-04-16T05:42:00.468Z,96269.62
2019-04-16T05:44:27.200Z,96269.45
2019-04-16T05:46:53.851Z,96277.64
2019-04-16T05:49:24.628Z,96275.75
2019-04-16T05:51:55.349Z,96276.95
2019-04-16T05:54:44.387Z,96276.52
2019-04-16T06:00:02.802Z,96279.80
2019-04-16T06:02:54.233Z,96275.95
2019-04-16T06:05:20.951Z,96276.72
2019-04-16T06:07:47.578Z,96275.27
2019-04-16T06:10:19.203Z,96277.44
2019-04-16T06:12:57.663Z,96276.39
2019-04-16T06:15:35.733Z,96274.73
2019-04-16T06:18:20.790Z,96269.64
2019-04-16T06:21:07.084Z,96267.80
2019-04-16T06:23:53.188Z,96269.50
2019-04-16T06:26:39.306Z,96270.77
2019-04-16T06:29:14.597Z,96273.45
2019-04-16T06:32:00.802Z,96272.30
2019-04-16T06:34:47.038Z,96280.82
2019-04-16T06:37:33.229Z,96280.02
2019-04-16T06:40:19.498Z,96278.11
2019-04-16T06:42:53.937Z,96276.79
2019-04-16T06:48:20.315Z,96272.98
2019-04-16T06:51:06.501Z,96271.64
2019-04-16T06:53:54.012Z,96272.02
2019-04-16T06:56:50.547Z,96276.27
2019-04-16T06:59:37.368Z,96272.25
2019-04-16T07:02:24.670Z,96275.95
2019-04-16T07:05:18.039Z,96276.43
2019-04-16T07:08:04.235Z,96273.72
2019-04-16T07:10:44.347Z,96279.66
2019-04-16T07:13:11.188Z,96278.80
2019-04-16T07:15:48.575Z,96275.62
2019-04-16T07:18:15.199Z,96274.09
2019-04-16T07:20:42.297Z,96276.23
2019-04-16T07:23:10.339Z,96278.88
2019-04-16T07:25:41.726Z,96279.77
2019-04-16T07:28:31.385Z,96275.51
2019-04-16T07:31:32.686Z,96276.58
2019-04-16T07:33:58.854Z,96276.56
2019-04-16T07:36:44.944Z,96278.12
2019-04-16T07:39:31.017Z,96270.53
2019-04-16T07:42:21.379Z,96273.11
2019-04-16T07:45:13.025Z,96270.62
2019-04-16T07:48:06.920Z,96270.56
2019-04-16T07:50:53.247Z,96270.06
2019-04-16T07:53:39.421Z,96272.38
2019-04-16T07:56:11.529Z,96267.13
2019-04-16T07:58:38.139Z,96260.48
2019-04-16T08:01:04.874Z,96267.08
2019-04-16T08:03:31.523Z,96271.61
2019-04-16T08:05:58.245Z,96268.33
2019-04-16T08:08:25.487Z,96271.14
2019-04-16T08:10:59.628Z,96267.55
2019-04-16T08:16:04.820Z,96272.36
2019-04-16T08:18:31.467Z,96267.70
2019-04-16T08:21:02.144Z,96266.77
2019-04-16T08:23:55.868Z,96270.94
2019-04-16T08:26:22.590Z,96274.29
2019-04-16T08:28:49.228Z,96269.55
2019-04-16T08:31:22.216Z,96268.38
2019-04-16T08:33:48.848Z,96268.28
2019-04-16T08:36:15.490Z,96271.92
2019-04-16T08:38:42.228Z,96273.19
2019-04-16T08:41:08.858Z,96271.73
2019-04-16T08:43:35.528Z,96268.09
2019-04-16T08:46:02.131Z,96269.52
2019-04-16T08:48:28.745Z,96267.75
2019-04-16T08:50:57.880Z,96269.78
2019-04-16T08:53:23.891Z,96273.40
2019-04-16T08:55:50.568Z,96270.25
2019-04-16T08:58:17.273Z,96273.61
2019-04-16T09:00:46.413Z,96284.22
2019-04-16T09:03:15.475Z,96281.05
2019-04-16T09:05:42.291Z,96278.17
2019-04-16T09:08:24.248Z,96283.72
2019-04-16T09:10:50.885Z,96280.86
2019-04-16T09:15:58.632Z,96275.53
2019-04-16T09:18:44.757Z,96272.28
2019-04-16T09:21:11.689Z,96269.59
2019-04-16T09:24:09.129Z,96273.81
2019-04-16T09:29:59.287Z,96278.20
2019-04-16T09:32:45.510Z,96275.52
2019-04-16T09:35:31.597Z,96274.23
2019-04-16T09:38:17.805Z,96266.40
2019-04-16T09:41:03.991Z,96267.29
2019-04-16T09:46:11.144Z,96266.48
2019-04-16T09:48:44.577Z,96261.59
2019-04-16T09:51:11.208Z,96256.73
2019-04-16T09:53:40.407Z,96261.31
2019-04-16T09:56:32.205Z,96258.05
2019-04-16T10:04:44.137Z,96253.88
2019-04-16T10:07:10.759Z,96257.87
2019-04-16T10:09:37.481Z,96259.06
2019-04-16T10:12:04.927Z,96258.25
2019-04-16T10:14:39.223Z,96259.91
2019-04-16T10:19:44.708Z,96258.02
2019-04-16T10:22:11.356Z,96253.97
2019-04-16T10:24:57.438Z,96256.86
2019-04-16T10:27:43.676Z,96250.66
2019-04-16T10:33:04.376Z,96255.38
2019-04-16T10:35:31.109Z,96244.55
2019-04-16T10:40:58.246Z,96245.62
2019-04-16T10:43:51.169Z,96245.14
2019-04-16T10:46:37.419Z,96241.16
2019-04-16T10:49:18.258Z,96244.64
2019-04-16T10:52:04.455Z,96240.48
2019-04-16T10:54:50.699Z,96242.58
2019-04-16T10:57:38.512Z,96238.47
2019-04-16T11:03:35.929Z,96230.58
2019-04-16T11:06:22.114Z,96215.23
2019-04-16T11:08:48.780Z,96226.91
2019-04-16T11:11:15.558Z,96220.22
2019-04-16T11:13:58.382Z,96213.98
2019-04-16T11:16:19.703Z,96213.72
2019-04-16T11:18:46.333Z,96217.47
2019-04-16T11:21:13.193Z,96217.09
2019-04-16T11:23:39.915Z,96215.91
2019-04-16T11:26:06.778Z,96216.16
2019-04-16T11:28:44.997Z,96217.97
2019-04-16T11:36:46.279Z,96199.97
2019-04-16T11:39:12.931Z,96201.11
2019-04-16T11:41:39.591Z,96196.75
2019-04-16T11:44:15.160Z,96195.83
2019-04-16T11:46:34.914Z,96195.08
2019-04-16T11:49:01.681Z,96188.02
2019-04-16T11:51:28.375Z,96188.63
2019-04-16T11:53:55.034Z,96186.05
2019-04-16T11:56:22.631Z,96182.79
2019-04-16T11:59:00.757Z,96179.42
2019-04-16T12:04:59.118Z,96182.77
2019-04-16T12:07:50.365Z,96171.69
2019-04-16T12:10:35.699Z,96169.66
2019-04-16T12:13:21.790Z,96171.23
2019-04-16T12:16:07.973Z,96165.98
2019-04-16T12:18:54.258Z,96169.92
2019-04-16T12:21:40.422Z,96157.11
2019-04-16T12:24:26.552Z,96160.92
2019-04-16T12:27:12.749Z,96153.28
2019-04-16T12:29:58.969Z,96156.44
2019-04-16T12:32:45.151Z,96158.99
2019-04-16T12:35:34.769Z,96159.55
2019-04-16T12:38:12.721Z,96157.78
2019-04-16T12:41:00.006Z,96150.70
2019-04-16T12:43:50.824Z,96144.81
2019-04-16T12:46:40.328Z,96144.53
2019-04-16T12:49:26.512Z,96139.44
2019-04-16T12:52:06.377Z,96133.97
2019-04-16T12:54:58.331Z,96130.61
2019-04-16T12:57:47.176Z,96126.84
2019-04-16T13:00:40.926Z,96130.70
2019-04-16T13:03:27.139Z,96116.97
2019-04-16T13:06:13.385Z,96111.22
2019-04-16T13:08:59.547Z,96118.48
2019-04-16T13:11:34.989Z,96121.87
2019-04-16T13:14:29.963Z,96120.58
2019-04-16T13:17:18.777Z,96119.87
2019-04-16T13:20:10.779Z,96120.13
2019-04-16T13:22:57.002Z,96123.42
2019-04-16T13:25:43.185Z,96122.66
2019-04-16T13:28:09.952Z,96126.66
2019-04-16T13:30:36.669Z,96124.47
2019-04-16T13:33:03.333Z,96118.02
2019-04-16T13:35:30.059Z,96119.45
2019-04-16T13:37:56.736Z,96111.66
2019-04-16T13:40:23.415Z,96116.34
2019-04-16T13:42:50.113Z,96117.91
2019-04-16T13:45:36.414Z,96115.10
2019-04-16T13:48:15.426Z,96120.39
2019-04-16T13:51:05.274Z,96117.03
2019-04-16T13:53:49.646Z,96114.09
2019-04-16T13:56:50.365Z,96117.12
2019-04-16T13:59:17.518Z,96111.22
2019-04-16T14:01:59.130Z,96110.66
2019-04-16T14:04:30.445Z,96114.92
2019-04-16T14:06:54.560Z,96115.72
2019-04-16T14:09:21.200Z,96119.35
2019-04-16T14:11:51.049Z,96126.47
2019-04-16T14:14:18.190Z,96120.16
2019-04-16T14:16:45.689Z,96123.32
2019-04-16T14:19:12.336Z,96123.36
2019-04-16T14:21:38.943Z,96122.92
2019-04-16T14:24:05.577Z,96113.66
2019-04-16T14:26:32.181Z,96114.26
2019-04-16T14:28:58.945Z,96108.34
2019-04-16T14:31:26.347Z,96104.38
2019-04-16T14:34:21.373Z,96114.77
2019-04-16T14:36:48.099Z,96109.45
2019-04-16T14:39:25.981Z,96099.06
2019-04-16T14:41:52.595Z,96102.81
2019-04-16T14:44:19.513Z,96100.52
2019-04-16T14:46:46.134Z,96106.43
2019-04-16T14:49:15.273Z,96106.43
2019-04-16T14:51:41.273Z,96105.47
2019-04-16T14:54:21.506Z,96104.66
2019-04-16T14:56:51.245Z,96102.89
2019-04-16T14:59:33.548Z,96108.62
2019-04-16T15:02:29.326Z,96107.34
2019-04-16T15:05:21.368Z,96109.25
2019-04-16T15:08:01.889Z,96103.50
2019-04-16T15:10:46.434Z,96106.66
2019-04-16T15:13:35.417Z,96105.86
2019-04-16T15:16:22.191Z,96108.98
2019-04-16T15:19:20.369Z,96105.41
2019-04-16T15:22:15.497Z,96107.73
2019-04-16T15:24:45.955Z,96106.17
2019-04-16T15:27:28.151Z,96114.16
2019-04-16T15:30:15.594Z,96110.58
2019-04-16T15:33:05.271Z,96111.30
2019-04-16T15:35:31.884Z,96112.14
2019-04-16T15:38:07.024Z,96116.80
2019-04-16T15:40:39.157Z,96112.42
2019-04-16T15:43:23.566Z,96115.38
2019-04-16T15:46:26.760Z,96117.37
2019-04-16T15:49:06.509Z,96121.02
2019-04-16T15:51:52.652Z,96118.79
2019-04-16T15:54:38.792Z,96115.58
2019-04-16T15:57:31.398Z,96123.10
2019-04-16T16:00:26.932Z,96122.66
2019-04-16T16:03:25.202Z,96127.68
2019-04-16T16:05:56.519Z,96131.14
2019-04-16T16:08:35.442Z,96130.61
2019-04-16T16:11:01.712Z,96126.94
2019-04-16T16:13:28.369Z,96126.36
2019-04-16T16:15:55.034Z,96128.90
2019-04-16T16:18:21.783Z,96130.83
2019-04-16T16:20:48.490Z,96134.38
2019-04-16T16:23:15.123Z,96137.12
2019-04-16T16:25:42.133Z,96143.98
2019-04-16T16:28:08.867Z,96142.27
2019-04-16T16:30:35.602Z,96136.54
2019-04-16T16:33:02.254Z,96139.77
2019-04-16T16:35:28.903Z,96143.09
2019-04-16T16:37:55.557Z,96148.38
2019-04-16T16:40:22.246Z,96148.59
2019-04-16T16:42:48.928Z,96149.27
2019-04-16T16:45:15.655Z,96145.23
2019-04-16T16:47:42.380Z,96143.16
2019-04-16T16:50:11.541Z,96149.49
2019-04-16T16:52:58.275Z,96144.75
2019-04-16T16:55:46.242Z,96151.97
2019-04-16T16:58:41.618Z,96151.36
2019-04-16T17:01:22.937Z,96158.91
2019-04-16T17:03:56.057Z,96160.53
2019-04-16T17:06:22.803Z,96163.92
2019-04-16T17:08:49.421Z,96162.25
2019-04-16T17:11:17.102Z,96172.02
2019-04-16T17:13:43.880Z,96174.05
2019-04-16T17:16:13.530Z,96181.77
2019-04-16T17:18:39.077Z,96177.13
2019-04-16T17:21:05.705Z,96178.78
2019-04-16T17:23:32.424Z,96182.87
2019-04-16T17:25:59.069Z,96180.34
2019-04-16T17:28:25.772Z,96186.91
2019-04-16T17:30:52.417Z,96183.41
2019-04-16T17:33:19.139Z,96187.96
2019-04-16T17:35:46.569Z,96192.72
2019-04-16T17:38:13.799Z,96201.20
2019-04-16T17:41:00.365Z,96199.02
2019-04-16T17:43:38.127Z,96202.20
2019-04-16T17:46:24.689Z,96204.23
2019-04-16T17:49:12.813Z,96209.88
2019-04-16T17:51:52.748Z,96205.79
2019-04-16T17:54:39.159Z,96216.42
2019-04-16T17:57:23.336Z,96225.10
2019-04-16T18:00:04.746Z,96225.58
2019-04-16T18:02:50.766Z,96231.11
2019-04-16T18:05:46.248Z,96233.94
2019-04-16T18:08:24.445Z,96236.22
2019-04-16T18:10:55.513Z,96239.58
2019-04-16T18:13:31.904Z,96240.48
2019-04-16T18:16:26.209Z,96253.54
2019-04-16T18:19:01.205Z,96256.05
2019-04-16T18:21:43.185Z,96260.41
2019-04-16T18:24:32.127Z,96264.53
2019-04-16T18:27:36.509Z,96263.98
2019-04-16T18:30:28.710Z,96268.36
2019-04-16T18:33:23.718Z,96271.88
2019-04-16T18:36:17.043Z,96275.41
2019-04-16T18:39:05.129Z,96276.78
2019-04-16T18:41:40.472Z,96281.93
2019-04-16T18:44:29.235Z,96284.06
2019-04-16T18:47:10.817Z,96285.11
2019-04-16T18:49:37.509Z,96281.56
2019-04-16T18:52:05.360Z,96295.88
2019-04-16T18:54:32.789Z,96298.77
2019-04-16T18:56:59.520Z,96303.56
2019-04-16T18:59:26.164Z,96307.52
2019-04-16T19:01:58.094Z,96306.06
2019-04-16T19:04:24.709Z,96313.24
2019-04-16T19:06:51.342Z,96314.72
2019-04-16T19:09:20.849Z,96316.46
2019-04-16T19:11:46.510Z,96325.76
2019-04-16T19:14:13.990Z,96319.69
2019-04-16T19:16:40.811Z,96323.37
2019-04-16T19:19:07.471Z,96332.41
2019-04-16T19:21:34.109Z,96327.48
2019-04-16T19:24:00.845Z,96333.06
2019-04-16T19:26:30.181Z,96336.76
2019-04-16T19:28:56.006Z,96339.92
2019-04-16T19:31:23.812Z,96348.72
2019-04-16T19:33:50.692Z,96341.91
2019-04-16T19:36:19.707Z,96344.20
2019-04-16T19:38:45.910Z,96352.67
2019-04-16T19:41:12.619Z,96351.21
2019-04-16T19:43:39.304Z,96350.30
2019-04-16T19:46:06.531Z,96348.59
2019-04-16T19:48:36.517Z,96353.05
2019-04-16T19:51:03.248Z,96360.13
2019-04-16T19:53:30.012Z,96356.48
2019-04-16T19:55:56.757Z,96364.05
2019-04-16T19:58:23.379Z,96367.41
2019-04-16T20:00:50.030Z,96363.80
2019-04-16T20:03:16.715Z,96369.38
2019-04-16T20:05:43.435Z,96376.04
2019-04-16T20:08:10.064Z,96367.63
2019-04-16T20:10:36.812Z,96371.04
2019-04-16T20:13:03.538Z,96371.23
2019-04-16T20:15:30.191Z,96367.61
2019-04-16T20:17:57.118Z,96376.92
2019-04-16T20:20:23.780Z,96377.06
2019-04-16T20:22:50.422Z,96380.16
2019-04-16T20:25:36.514Z,96378.02
2019-04-16T20:28:03.355Z,96383.23
2019-04-16T20:30:30.081Z,96380.85
2019-04-16T20:32:56.868Z,96388.84
2019-04-16T20:35:23.592Z,96385.98
2019-04-16T20:37:53.098Z,96385.55
2019-04-16T20:40:25.062Z,96392.09
2019-04-16T20:42:51.714Z,96388.47
2019-04-16T20:45:18.567Z,96396.70
2019-04-16T20:47:45.291Z,96393.40
2019-04-16T20:50:11.937Z,96391.12
2019-04-16T20:52:38.549Z,96398.53
2019-04-16T20:55:06.089Z,96403.52
2019-04-16T20:57:32.799Z,96405.84
2019-04-16T20:59:59.421Z,96415.94
2019-04-16T21:02:27.948Z,96413.42
2019-04-16T21:04:58.160Z,96418.63
2019-04-16T21:07:23.192Z,96418.20
2019-04-16T21:09:49.931Z,96411.59
2019-04-16T21:12:16.566Z,96415.98
2019-04-16T21:14:43.203Z,96421.73
2019-04-16T21:17:09.865Z,96424.58
2019-04-16T21:19:46.656Z,96424.25
2019-04-16T21:22:13.246Z,96424.70
2019-04-16T21:24:40.051Z,96428.59
2019-04-16T21:27:14.445Z,96423.08
2019-04-16T21:29:41.055Z,96427.33
2019-04-16T21:34:59.908Z,96424.70
2019-04-16T21:37:35.919Z,96432.08
2019-04-16T21:40:03.844Z,96428.20
2019-04-16T21:42:34.435Z,96430.25
2019-04-16T21:44:58.999Z,96427.41
2019-04-16T21:47:25.645Z,96433.14
2019-04-16T21:49:52.486Z,96426.81
2019-04-16T21:52:19.112Z,96434.27
2019-04-16T21:54:45.750Z,96432.59
2019-04-16T21:57:13.477Z,96439.23
2019-04-16T21:59:40.928Z,96442.95
2019-04-16T22:02:20.712Z,96433.11
2019-04-16T22:04:47.516Z,96431.72
2019-04-16T22:07:14.144Z,96437.37
2019-04-16T22:09:40.771Z,96437.91
2019-04-16T22:12:07.504Z,96441.87
2019-04-16T22:14:34.218Z,96445.88
2019-04-16T22:17:04.149Z,96441.98
2019-04-16T22:19:29.348Z,96443.55
2019-04-16T22:21:55.978Z,96452.03
2019-04-16T22:24:23.770Z,96444.10
2019-04-16T22:26:50.652Z,96450.63
2019-04-16T22:29:17.400Z,96443.73
2019-04-16T22:31:44.034Z,96453.44
2019-04-16T22:34:10.756Z,96448.65
2019-04-16T22:36:37.394Z,96444.39
2019-04-16T22:39:13.146Z,96445.80
2019-04-16T22:41:49.445Z,96448.48
2019-04-16T22:44:50.219Z,96456.54
2019-04-16T22:47:20.236Z,96455.66
2019-04-16T22:49:46.848Z,96455.89
2019-04-16T22:52:13.489Z,96451.56
2019-04-16T22:54:40.089Z,96457.92
2019-04-16T22:57:11.904Z,96460.25
2019-04-16T22:59:39.407Z,96459.63
2019-04-16T23:02:27.124Z,96461.44
2019-04-16T23:04:54.846Z,96463.83
2019-04-16T23:07:22.297Z,96468.38
2019-04-16T23:09:49.842Z,96470.84
2019-04-16T23:12:16.485Z,96471.30
2019-04-16T23:14:43.166Z,96473.91
2019-04-16T23:17:13.138Z,96475.91
2019-04-16T23:19:38.453Z,96480.64
2019-04-16T23:22:05.163Z,96480.85
2019-04-16T23:24:31.811Z,96482.21
2019-04-16T23:26:58.463Z,96482.78
2019-04-16T23:29:25.159Z,96484.09
2019-04-16T23:31:55.059Z,96484.39
2019-04-16T23:34:20.589Z,96483.35
2019-04-16T23:36:48.514Z,96482.05
2019-04-16T23:39:15.755Z,96483.45
2019-04-16T23:41:42.395Z,96482.41
2019-04-16T23:44:34.207Z,96489.40
2019-04-16T23:47:22.297Z,96486.95
2019-04-16T23:50:04.531Z,96494.77
2019-04-16T23:52:36.411Z,96489.24
2019-04-16T23:55:24.511Z,96489.85
2019-04-16T23:58:01.916Z,96490.52
